createdAt,value
2022-09-16T00:00:54.406Z,97295.00
2022-09-16T00:04:55.684Z,97292.00
2022-09-16T00:09:00.365Z,97293.00
2022-09-16T00:13:01.506Z,97294.00
2022-09-16T00:17:02.842Z,97293.00
2022-09-16T00:21:09.300Z,97287.00
2022-09-16T00:25:10.272Z,97279.00
2022-09-16T00:29:11.317Z,97298.00
2022-09-16T00:33:12.392Z,97293.00
2022-09-16T00:37:13.447Z,97296.00
2022-09-16T00:41:18.288Z,97290.00
2022-09-16T00:45:26.642Z,97302.00
2022-09-16T00:49:30.551Z,97287.00
2022-09-16T00:53:38.377Z,97295.00
2022-09-16T00:57:40.126Z,97296.00
2022-09-16T01:01:43.918Z,97294.00
2022-09-16T01:05:45.975Z,97292.00
2022-09-16T01:09:47.017Z,97293.00
2022-09-16T01:13:49.245Z,97286.00
2022-09-16T01:18:06.266Z,97283.00
2022-09-16T01:22:22.827Z,97288.00
2022-09-16T01:27:03.007Z,97295.00
2022-09-16T01:31:16.730Z,97288.00
2022-09-16T01:35:33.057Z,97290.00
2022-09-16T01:39:49.598Z,97280.00
2022-09-16T01:44:00.545Z,97286.00
2022-09-16T01:48:22.600Z,97286.00
2022-09-16T01:52:27.294Z,97272.00
2022-09-16T01:56:32.175Z,97282.00
2022-09-16T02:00:33.661Z,97282.00
2022-09-16T02:04:38.815Z,97272.00
2022-09-16T02:08:46.727Z,97269.00
2022-09-16T02:12:49.877Z,97268.00
2022-09-16T02:17:00.770Z,97266.00
2022-09-16T02:21:05.286Z,97271.00
2022-09-16T02:25:08.105Z,97283.00
2022-09-16T02:29:15.738Z,97269.00
2022-09-16T02:33:18.190Z,97284.00
2022-09-16T02:37:23.011Z,97278.00
2022-09-16T02:41:24.417Z,97278.00
2022-09-16T02:45:32.224Z,97278.00
2022-09-16T02:49:43.636Z,97279.00
2022-09-16T02:53:48.424Z,97286.00
2022-09-16T02:57:50.030Z,97275.00
2022-09-16T03:01:51.260Z,97276.00
2022-09-16T03:06:07.785Z,97278.00
2022-09-16T03:10:11.295Z,97271.00
2022-09-16T03:14:21.595Z,97283.00
2022-09-16T03:18:44.489Z,97276.00
2022-09-16T03:27:08.985Z,97270.00
2022-09-16T03:31:19.472Z,97267.00
2022-09-16T03:35:33.656Z,97259.00
2022-09-16T03:39:36.231Z,97252.00
2022-09-16T03:43:37.344Z,97252.00
2022-09-16T03:47:38.670Z,97246.00
2022-09-16T03:51:39.762Z,97236.00
2022-09-16T03:55:40.719Z,97245.00
2022-09-16T03:59:41.665Z,97240.00
2022-09-16T04:03:42.721Z,97247.00
2022-09-16T04:07:43.696Z,97258.00
2022-09-16T04:11:44.866Z,97248.00
2022-09-16T04:15:45.981Z,97254.00
2022-09-16T04:19:46.977Z,97246.00
2022-09-16T04:23:49.119Z,97256.00
2022-09-16T04:27:50.096Z,97249.00
2022-09-16T04:31:50.930Z,97243.00
2022-09-16T04:35:51.931Z,97247.00
2022-09-16T04:39:53.021Z,97256.00
2022-09-16T04:43:56.789Z,97259.00
2022-09-16T04:47:58.751Z,97257.00
2022-09-16T04:51:59.748Z,97249.00
2022-09-16T04:56:06.412Z,97245.00
2022-09-16T05:00:09.243Z,97262.00
2022-09-16T05:04:10.168Z,97244.00
2022-09-16T05:08:11.306Z,97244.00
2022-09-16T05:12:12.192Z,97247.00
2022-09-16T05:16:19.373Z,97248.00
2022-09-16T05:20:20.416Z,97256.00
2022-09-16T05:24:21.497Z,97248.00
2022-09-16T05:28:22.567Z,97255.00
2022-09-16T05:32:23.703Z,97252.00
2022-09-16T05:36:27.208Z,97260.00
2022-09-16T05:40:28.477Z,97218.00
2022-09-16T05:44:29.601Z,97268.00
2022-09-16T05:48:31.666Z,97260.00
2022-09-16T05:52:32.781Z,97257.00
2022-09-16T05:56:33.946Z,97271.00
2022-09-16T06:00:34.903Z,97261.00
2022-09-16T06:04:36.024Z,97260.00
2022-09-16T06:08:37.162Z,97255.00
2022-09-16T06:12:38.366Z,97249.00
2022-09-16T06:16:40.241Z,97247.00
2022-09-16T06:20:41.188Z,97262.00
2022-09-16T06:24:42.175Z,97248.00
2022-09-16T06:28:43.626Z,97255.00
2022-09-16T06:32:44.635Z,97256.00
2022-09-16T06:36:46.509Z,97264.00
2022-09-16T06:40:48.603Z,97260.00
2022-09-16T06:44:49.724Z,97268.00
2022-09-16T06:48:53.762Z,97259.00
2022-09-16T06:52:54.780Z,97246.00
2022-09-16T06:56:55.778Z,97242.00
2022-09-16T07:00:56.820Z,97260.00
2022-09-16T07:04:57.740Z,97239.00
2022-09-16T07:08:59.000Z,97245.00
2022-09-16T07:13:00.056Z,97245.00
2022-09-16T07:17:01.774Z,97254.00
2022-09-16T07:21:12.165Z,97262.00
2022-09-16T07:25:13.365Z,97253.00
2022-09-16T07:29:16.823Z,97261.00
2022-09-16T07:33:17.781Z,97274.00
2022-09-16T07:37:19.462Z,97262.00
2022-09-16T07:41:23.414Z,97272.00
2022-09-16T07:45:25.179Z,97258.00
2022-09-16T07:49:26.516Z,97268.00
2022-09-16T07:53:29.615Z,97271.00
2022-09-16T07:57:30.780Z,97278.00
2022-09-16T08:01:32.105Z,97278.00
2022-09-16T08:05:34.596Z,97285.00
2022-09-16T08:09:41.090Z,97278.00
2022-09-16T08:13:43.018Z,97277.00
2022-09-16T08:17:46.184Z,97276.00
2022-09-16T08:21:47.695Z,97274.00
2022-09-16T08:25:59.293Z,97276.00
2022-09-16T08:30:05.057Z,97269.00
2022-09-16T08:34:06.236Z,97273.00
2022-09-16T08:38:07.263Z,97283.00
2022-09-16T08:42:33.733Z,97279.00
2022-09-16T08:46:50.011Z,97282.00
2022-09-16T08:50:51.879Z,97285.00
2022-09-16T08:54:56.707Z,97273.00
2022-09-16T08:59:01.218Z,97283.00
2022-09-16T09:03:09.541Z,97289.00
2022-09-16T09:07:25.636Z,97276.00
2022-09-16T09:11:45.638Z,97281.00
2022-09-16T09:16:02.703Z,97275.00
2022-09-16T09:20:25.812Z,97273.00
2022-09-16T09:24:39.306Z,97270.00
2022-09-16T09:29:01.187Z,97275.00
2022-09-16T09:33:44.517Z,97277.00
2022-09-16T09:37:45.679Z,97280.00
2022-09-16T09:41:50.816Z,97281.00
2022-09-16T09:46:07.848Z,97268.00
2022-09-16T09:50:15.762Z,97272.00
2022-09-16T09:54:20.792Z,97268.00
2022-09-16T09:58:34.735Z,97268.00
2022-09-16T10:02:39.250Z,97264.00
2022-09-16T10:06:41.675Z,97270.00
2022-09-16T10:10:50.113Z,97259.00
2022-09-16T10:14:51.124Z,97266.00
2022-09-16T10:19:08.493Z,97265.00
2022-09-16T10:23:15.426Z,97270.00
2022-09-16T10:27:26.697Z,97272.00
2022-09-16T10:31:34.288Z,97265.00
2022-09-16T10:35:37.143Z,97277.00
2022-09-16T10:39:44.281Z,97271.00
2022-09-16T10:43:55.219Z,97265.00
2022-09-16T10:48:02.140Z,97257.00
2022-09-16T10:52:15.882Z,97252.00
2022-09-16T10:56:20.015Z,97261.00
2022-09-16T11:00:24.738Z,97258.00
2022-09-16T11:04:56.931Z,97253.00
2022-09-16T11:09:07.605Z,97255.00
2022-09-16T11:13:18.505Z,97252.00
2022-09-16T11:17:54.281Z,97258.00
2022-09-16T11:22:27.535Z,97257.00
2022-09-16T11:26:56.796Z,97267.00
2022-09-16T11:31:19.997Z,97276.00
2022-09-16T11:35:31.190Z,97270.00
2022-09-16T11:39:48.221Z,97262.00
2022-09-16T11:44:11.294Z,97271.00
2022-09-16T11:48:25.337Z,97266.00
2022-09-16T11:52:47.168Z,97267.00
2022-09-16T11:57:01.347Z,97269.00
2022-09-16T12:01:06.258Z,97272.00
2022-09-16T12:05:23.552Z,97270.00
2022-09-16T12:09:55.376Z,97255.00
2022-09-16T12:14:05.935Z,97249.00
2022-09-16T12:18:32.992Z,97255.00
2022-09-16T12:22:37.981Z,97243.00
2022-09-16T12:26:45.485Z,97238.00
2022-09-16T12:30:50.731Z,97224.00
2022-09-16T12:34:58.486Z,97217.00
2022-09-16T12:39:00.175Z,97217.00
2022-09-16T12:43:11.105Z,97224.00
2022-09-16T12:47:34.570Z,97220.00
2022-09-16T12:51:50.493Z,97225.00
2022-09-16T12:56:11.315Z,97209.00
2022-09-16T13:00:21.671Z,97217.00
2022-09-16T13:04:30.626Z,97206.00
2022-09-16T13:08:33.806Z,97207.00
2022-09-16T13:12:41.365Z,97216.00
2022-09-16T13:16:38.865Z,97233.00
2022-09-16T13:20:41.851Z,97205.00
2022-09-16T13:24:46.810Z,97214.00
2022-09-16T13:28:48.322Z,97216.00
2022-09-16T13:32:56.682Z,97210.00
2022-09-16T13:36:57.974Z,97203.00
2022-09-16T13:41:01.118Z,97206.00
2022-09-16T13:45:02.144Z,97216.00
2022-09-16T13:49:09.054Z,97220.00
2022-09-16T13:53:13.962Z,97221.00
2022-09-16T13:57:25.312Z,97221.00
2022-09-16T14:01:55.585Z,97216.00
2022-09-16T14:05:55.208Z,97219.00
2022-09-16T14:10:02.498Z,97213.00
2022-09-16T14:14:29.827Z,97205.00
2022-09-16T14:18:17.196Z,97200.00
2022-09-16T14:22:23.853Z,97191.00
2022-09-16T14:26:24.955Z,97201.00
2022-09-16T14:30:25.811Z,97200.00
2022-09-16T14:34:30.669Z,97200.00
2022-09-16T14:38:45.536Z,97198.00
2022-09-16T14:42:41.505Z,97188.00
2022-09-16T14:46:45.819Z,97230.00
2022-09-16T14:50:49.547Z,97266.00
2022-09-16T14:54:51.511Z,97286.00
2022-09-16T14:58:54.085Z,97297.00
2022-09-16T15:03:01.876Z,97294.00
2022-09-16T15:07:24.215Z,97295.00
2022-09-16T15:11:50.237Z,97307.00
2022-09-16T15:15:41.862Z,97288.00
2022-09-16T15:19:46.855Z,97283.00
2022-09-16T15:23:50.549Z,97284.00
2022-09-16T15:27:51.692Z,97277.00
2022-09-16T15:31:52.848Z,97274.00
2022-09-16T15:35:54.079Z,97261.00
2022-09-16T15:39:55.223Z,97268.00
2022-09-16T15:43:59.168Z,97261.00
2022-09-16T15:48:03.593Z,97256.00
2022-09-16T15:52:08.775Z,97255.00
2022-09-16T15:56:28.508Z,97253.00
2022-09-16T16:00:33.264Z,97246.00
2022-09-16T16:04:34.477Z,97244.00
2022-09-16T16:08:48.266Z,97245.00
2022-09-16T16:12:51.380Z,97242.00
2022-09-16T16:17:11.855Z,97244.00
2022-09-16T16:20:55.572Z,97248.00
2022-09-16T16:24:56.534Z,97248.00
2022-09-16T16:28:57.674Z,97252.00
2022-09-16T16:32:58.702Z,97261.00
2022-09-16T16:37:00.083Z,97262.00
2022-09-16T16:41:01.131Z,97249.00
2022-09-16T16:45:02.997Z,97258.00
2022-09-16T16:49:04.468Z,97238.00
2022-09-16T16:53:05.965Z,97248.00
2022-09-16T16:57:06.942Z,97231.00
2022-09-16T17:01:15.831Z,97239.00
2022-09-16T17:05:16.926Z,97239.00
2022-09-16T17:09:17.863Z,97240.00
2022-09-16T17:13:18.853Z,97255.00
2022-09-16T17:17:20.134Z,97252.00
2022-09-16T17:21:24.393Z,97259.00
2022-09-16T17:25:25.598Z,97262.00
2022-09-16T17:29:26.944Z,97258.00
2022-09-16T17:33:27.923Z,97263.00
2022-09-16T17:37:28.972Z,97270.00
2022-09-16T17:41:30.658Z,97269.00
2022-09-16T17:45:32.696Z,97279.00
2022-09-16T17:49:33.851Z,97290.00
2022-09-16T17:53:35.865Z,97283.00
2022-09-16T17:57:37.798Z,97279.00
2022-09-16T18:01:39.393Z,97272.00
2022-09-16T18:05:40.502Z,97271.00
2022-09-16T18:09:41.443Z,97281.00
2022-09-16T18:13:43.582Z,97285.00
2022-09-16T18:17:44.737Z,97298.00
2022-09-16T18:21:45.781Z,97294.00
2022-09-16T18:25:47.096Z,97295.00
2022-09-16T18:29:48.187Z,97297.00
2022-09-16T18:33:53.637Z,97302.00
2022-09-16T18:37:54.933Z,97304.00
2022-09-16T18:41:55.894Z,97312.00
2022-09-16T18:46:12.759Z,97322.00
2022-09-16T18:50:14.818Z,97335.00
2022-09-16T18:54:26.420Z,97332.00
2022-09-16T18:58:27.393Z,97331.00
2022-09-16T19:02:28.864Z,97338.00
2022-09-16T19:06:33.051Z,97333.00
2022-09-16T19:10:34.195Z,97335.00
2022-09-16T19:14:35.342Z,97332.00
2022-09-16T19:18:36.456Z,97331.00
2022-09-16T19:22:37.570Z,97329.00
2022-09-16T19:26:39.022Z,97329.00
2022-09-16T19:30:40.105Z,97331.00
2022-09-16T19:34:41.383Z,97337.00
2022-09-16T19:38:42.892Z,97348.00
2022-09-16T19:42:44.026Z,97348.00
2022-09-16T19:46:47.164Z,97351.00
2022-09-16T19:50:52.153Z,97345.00
2022-09-16T19:54:53.130Z,97352.00
2022-09-16T19:58:54.784Z,97354.00
2022-09-16T20:02:55.993Z,97341.00
2022-09-16T20:06:57.126Z,97353.00
2022-09-16T20:11:03.107Z,97354.00
2022-09-16T20:15:04.786Z,97359.00
2022-09-16T20:19:11.826Z,97361.00
2022-09-16T20:23:12.833Z,97354.00
2022-09-16T20:27:14.005Z,97359.00
2022-09-16T20:31:17.669Z,97361.00
2022-09-16T20:35:19.434Z,97356.00
2022-09-16T20:39:21.540Z,97375.00
2022-09-16T20:43:22.618Z,97374.00
2022-09-16T20:47:25.585Z,97370.00
2022-09-16T20:51:30.904Z,97363.00
2022-09-16T20:55:31.920Z,97360.00
2022-09-16T20:59:33.087Z,97357.00
2022-09-16T21:03:34.480Z,97345.00
2022-09-16T21:07:35.675Z,97354.00
2022-09-16T21:11:40.124Z,97346.00
2022-09-16T21:15:41.016Z,97335.00
2022-09-16T21:19:41.991Z,97350.00
2022-09-16T21:23:46.480Z,97346.00
2022-09-16T21:27:47.638Z,97339.00
2022-09-16T21:31:48.751Z,97344.00
2022-09-16T21:35:51.317Z,97345.00
2022-09-16T21:39:52.542Z,97348.00
2022-09-16T21:43:56.408Z,97351.00
2022-09-16T21:47:57.447Z,97356.00
2022-09-16T21:51:58.436Z,97352.00
2022-09-16T21:56:05.582Z,97356.00
2022-09-16T22:00:29.864Z,97361.00
2022-09-16T22:04:30.956Z,97354.00
2022-09-16T22:08:32.240Z,97357.00
2022-09-16T22:12:33.344Z,97361.00
2022-09-16T22:16:36.796Z,97365.00
2022-09-16T22:20:37.855Z,97363.00
2022-09-16T22:24:39.595Z,97379.00
2022-09-16T22:28:41.252Z,97370.00
2022-09-16T22:32:42.609Z,97368.00
2022-09-16T22:36:43.645Z,97362.00
2022-09-16T22:40:44.505Z,97356.00
2022-09-16T22:44:45.760Z,97361.00
2022-09-16T22:48:47.950Z,97361.00
2022-09-16T22:52:49.050Z,97357.00
2022-09-16T22:56:50.056Z,97360.00
2022-09-16T23:00:51.398Z,97350.00
2022-09-16T23:04:53.428Z,97357.00
2022-09-16T23:08:54.717Z,97354.00
2022-09-16T23:12:57.554Z,97364.00
2022-09-16T23:16:58.722Z,97357.00
2022-09-16T23:21:02.046Z,97348.00
2022-09-16T23:25:03.219Z,97359.00
2022-09-16T23:29:07.160Z,97353.00
2022-09-16T23:33:08.224Z,97352.00
2022-09-16T23:37:09.387Z,97354.00
2022-09-16T23:41:16.564Z,97351.00
2022-09-16T23:45:17.579Z,97347.00
2022-09-16T23:49:19.835Z,97336.00
2022-09-16T23:53:21.360Z,97343.00
2022-09-16T23:57:22.411Z,97331.00
